Pagrindinis puslapis
METAR-TAF:

METAR-TAF

Oro uostai :

Lábrea, Amazonė, Brazilija

platuma: 07-15-01S, ilguma: 064-47-02W, Aukštis: 58 m

Dabartinis oras

Ataskaita buvo paskelbta 1 valandą ir 19 minutes, ne 04:00 UTC
Vėjas 21 kt iš Pietų/Pietvakarių
Temperatūra 24°C
Drėgmė 89%
Slėgis 1014 hPa
Matomumas: 1100 m
Išsisklaidę debesys ne aukštis 1600 ft
Su prošvaistėmis ne aukštis 2900 ft
lietus

METAR: SBLB 230400Z AUTO 20021KT 1100 SHRA SCT016 BKN029 24/22 Q1014 W28/S4

Laikas: 01:19 (05:19 UTC)


TAF: trūkstamas

Orai ataskaitas ir orų prognozės (METAR, TAF).

turimą stotys yra geltonos ir raudonos taškus žemėlapyje.

Perkelti pele per norėdami pamatyti stoties vardą.

Tada spustelėkite, norėdami matyti oro stebėjimo ir prognozės.

Norėdami pakeisti žemėlapį: spustelėkite ant žalios mygtukų su juodo kryžiaus žemyn,; žalią mygtuką su brūkšneliu, jei norite nutolinti; arba žalių rodyklių gretimoms žemėlapius.


METAR-TAF: